sensor_id;sensor_type;location;lat;lon;timestamp;P1;durP1;ratioP1;P2;durP2;ratioP2
37151;SDS011;23046;50.112;8.952;2023-02-28T00:00:07;1.40;;;1.30;;
37151;SDS011;23046;50.112;8.952;2023-02-28T00:00:21;1.52;;;1.42;;
37151;SDS011;23046;50.112;8.952;2023-02-28T00:00:32;1.57;;;1.40;;
37151;SDS011;23046;50.112;8.952;2023-02-28T00:00:42;1.50;;;1.38;;
37151;SDS011;23046;50.112;8.952;2023-02-28T00:00:53;1.80;;;1.20;;
37151;SDS011;23046;50.112;8.952;2023-02-28T00:01:03;1.53;;;1.37;;
37151;SDS011;23046;50.112;8.952;2023-02-28T00:01:13;1.60;;;1.40;;
37151;SDS011;23046;50.112;8.952;2023-02-28T00:01:24;1.40;;;1.30;;
37151;SDS011;23046;50.112;8.952;2023-02-28T00:01:34;1.30;;;1.20;;
37151;SDS011;23046;50.112;8.952;2023-02-28T00:01:44;1.40;;;1.30;;
37151;SDS011;23046;50.112;8.952;2023-02-28T00:01:55;1.40;;;1.30;;
37151;SDS011;23046;50.112;8.952;2023-02-28T00:02:05;1.50;;;1.40;;
37151;SDS011;23046;50.112;8.952;2023-02-28T00:02:15;1.53;;;1.30;;
37151;SDS011;23046;50.112;8.952;2023-02-28T00:02:27;1.60;;;1.30;;
37151;SDS011;23046;50.112;8.952;2023-02-28T00:02:37;1.63;;;1.33;;
37151;SDS011;23046;50.112;8.952;2023-02-28T00:02:48;1.40;;;1.30;;
37151;SDS011;23046;50.112;8.952;2023-02-28T00:02:58;1.37;;;1.27;;
37151;SDS011;23046;50.112;8.952;2023-02-28T00:03:08;1.40;;;1.30;;
37151;SDS011;23046;50.112;8.952;2023-02-28T00:03:18;1.37;;;1.27;;
37151;SDS011;23046;50.112;8.952;2023-02-28T00:03:29;1.40;;;1.30;;
37151;SDS011;23046;50.112;8.952;2023-02-28T00:03:39;1.27;;;1.10;;
37151;SDS011;23046;50.112;8.952;2023-02-28T00:03:49;1.90;;;1.20;;
37151;SDS011;23046;50.112;8.952;2023-02-28T00:03:59;1.83;;;1.30;;
37151;SDS011;23046;50.112;8.952;2023-02-28T00:04:10;1.80;;;1.30;;
37151;SDS011;23046;50.112;8.952;2023-02-28T00:04:20;1.27;;;1.17;;
37151;SDS011;23046;50.112;8.952;2023-02-28T00:04:30;1.20;;;1.10;;
37151;SDS011;23046;50.112;8.952;2023-02-28T00:04:40;1.27;;;1.17;;
37151;SDS011;23046;50.112;8.952;2023-02-28T00:04:50;1.30;;;1.20;;
37151;SDS011;23046;50.112;8.952;2023-02-28T00:05:03;1.33;;;1.20;;
37151;SDS011;23046;50.112;8.952;2023-02-28T00:05:14;1.60;;;1.35;;
37151;SDS011;23046;50.112;8.952;2023-02-28T00:05:25;1.75;;;1.58;;
37151;SDS011;23046;50.112;8.952;2023-02-28T00:05:36;1.83;;;1.50;;
37151;SDS011;23046;50.112;8.952;2023-02-28T00:05:46;2.70;;;1.40;;
37151;SDS011;23046;50.112;8.952;2023-02-28T00:05:56;2.60;;;1.33;;
37151;SDS011;23046;50.112;8.952;2023-02-28T00:06:09;2.63;;;1.40;;
37151;SDS011;23046;50.112;8.952;2023-02-28T00:06:22;1.50;;;1.40;;
37151;SDS011;23046;50.112;8.952;2023-02-28T00:06:32;2.30;;;1.40;;
37151;SDS011;23046;50.112;8.952;2023-02-28T00:06:43;2.70;;;1.40;;
37151;SDS011;23046;50.112;8.952;2023-02-28T00:06:53;2.58;;;1.40;;
37151;SDS011;23046;50.112;8.952;2023-02-28T00:07:03;1.37;;;1.23;;
37151;SDS011;23046;50.112;8.952;2023-02-28T00:07:13;1.57;;;1.20;;
37151;SDS011;23046;50.112;8.952;2023-02-28T00:07:23;1.80;;;1.20;;
37151;SDS011;23046;50.112;8.952;2023-02-28T00:07:34;1.83;;;1.40;;
37151;SDS011;23046;50.112;8.952;2023-02-28T00:07:44;1.70;;;1.50;;
37151;SDS011;23046;50.112;8.952;2023-02-28T00:07:55;1.70;;;1.60;;
37151;SDS011;23046;50.112;8.952;2023-02-28T00:08:05;1.60;;;1.50;;
37151;SDS011;23046;50.112;8.952;2023-02-28T00:08:16;1.40;;;1.30;;
37151;SDS011;23046;50.112;8.952;2023-02-28T00:08:26;1.40;;;1.30;;
37151;SDS011;23046;50.112;8.952;2023-02-28T00:08:37;1.57;;;1.40;;
37151;SDS011;23046;50.112;8.952;2023-02-28T00:08:47;1.45;;;1.35;;
37151;SDS011;23046;50.112;8.952;2023-02-28T00:08:58;1.60;;;1.40;;
37151;SDS011;23046;50.112;8.952;2023-02-28T00:09:08;1.30;;;1.20;;
37151;SDS011;23046;50.112;8.952;2023-02-28T00:09:18;1.30;;;1.20;;
37151;SDS011;23046;50.112;8.952;2023-02-28T00:09:28;1.30;;;1.20;;
37151;SDS011;23046;50.112;8.952;2023-02-28T00:09:38;1.67;;;1.17;;
37151;SDS011;23046;50.112;8.952;2023-02-28T00:09:48;1.90;;;1.20;;
37151;SDS011;23046;50.112;8.952;2023-02-28T00:09:59;1.90;;;1.20;;
37151;SDS011;23046;50.112;8.952;2023-02-28T00:10:11;1.48;;;1.33;;
37151;SDS011;23046;50.112;8.952;2023-02-28T00:10:25;1.50;;;1.30;;
37151;SDS011;23046;50.112;8.952;2023-02-28T00:10:36;1.77;;;1.40;;
37151;SDS011;23046;50.112;8.952;2023-02-28T00:10:46;1.60;;;1.30;;
37151;SDS011;23046;50.112;8.952;2023-02-28T00:11:00;1.93;;;1.30;;
37151;SDS011;23046;50.112;8.952;2023-02-28T00:11:11;1.95;;;1.30;;
37151;SDS011;23046;50.112;8.952;2023-02-28T00:11:22;1.75;;;1.30;;
37151;SDS011;23046;50.112;8.952;2023-02-28T00:11:32;1.30;;;1.20;;
37151;SDS011;23046;50.112;8.952;2023-02-28T00:11:42;1.37;;;1.27;;
37151;SDS011;23046;50.112;8.952;2023-02-28T00:11:53;1.37;;;1.27;;
37151;SDS011;23046;50.112;8.952;2023-02-28T00:12:03;1.30;;;1.20;;
37151;SDS011;23046;50.112;8.952;2023-02-28T00:12:19;2.13;;;1.27;;
37151;SDS011;23046;50.112;8.952;2023-02-28T00:12:30;3.20;;;1.43;;
37151;SDS011;23046;50.112;8.952;2023-02-28T00:12:40;2.80;;;1.50;;
37151;SDS011;23046;50.112;8.952;2023-02-28T00:12:51;2.53;;;1.42;;
37151;SDS011;23046;50.112;8.952;2023-02-28T00:13:03;1.40;;;1.30;;
37151;SDS011;23046;50.112;8.952;2023-02-28T00:13:14;1.52;;;1.33;;
37151;SDS011;23046;50.112;8.952;2023-02-28T00:13:24;1.60;;;1.30;;
37151;SDS011;23046;50.112;8.952;2023-02-28T00:13:35;1.80;;;1.40;;
37151;SDS011;23046;50.112;8.952;2023-02-28T00:13:46;1.30;;;1.20;;
37151;SDS011;23046;50.112;8.952;2023-02-28T00:13:57;1.30;;;1.20;;
37151;SDS011;23046;50.112;8.952;2023-02-28T00:14:08;1.25;;;1.15;;
37151;SDS011;23046;50.112;8.952;2023-02-28T00:14:18;1.20;;;1.10;;
37151;SDS011;23046;50.112;8.952;2023-02-28T00:14:29;1.30;;;1.20;;
37151;SDS011;23046;50.112;8.952;2023-02-28T00:14:39;1.40;;;1.30;;
37151;SDS011;23046;50.112;8.952;2023-02-28T00:14:50;1.40;;;1.23;;
37151;SDS011;23046;50.112;8.952;2023-02-28T00:15:00;1.40;;;1.30;;
37151;SDS011;23046;50.112;8.952;2023-02-28T00:15:11;1.27;;;1.17;;
37151;SDS011;23046;50.112;8.952;2023-02-28T00:15:21;1.40;;;1.20;;
37151;SDS011;23046;50.112;8.952;2023-02-28T00:15:32;1.88;;;1.20;;
37151;SDS011;23046;50.112;8.952;2023-02-28T00:15:43;1.97;;;1.33;;
37151;SDS011;23046;50.112;8.952;2023-02-28T00:15:59;2.20;;;1.40;;
37151;SDS011;23046;50.112;8.952;2023-02-28T00:16:13;2.30;;;1.45;;
37151;SDS011;23046;50.112;8.952;2023-02-28T00:16:23;1.65;;;1.48;;
37151;SDS011;23046;50.112;8.952;2023-02-28T00:16:33;1.50;;;1.30;;
37151;SDS011;23046;50.112;8.952;2023-02-28T00:16:44;1.30;;;1.20;;
37151;SDS011;23046;50.112;8.952;2023-02-28T00:16:54;1.33;;;1.23;;
37151;SDS011;23046;50.112;8.952;2023-02-28T00:17:04;1.40;;;1.30;;
37151;SDS011;23046;50.112;8.952;2023-02-28T00:17:15;1.40;;;1.30;;
37151;SDS011;23046;50.112;8.952;2023-02-28T00:17:26;1.25;;;1.17;;
37151;SDS011;23046;50.112;8.952;2023-02-28T00:17:36;1.20;;;1.10;;
37151;SDS011;23046;50.112;8.952;2023-02-28T00:17:46;1.60;;;1.20;;
37151;SDS011;23046;50.112;8.952;2023-02-28T00:17:57;2.40;;;1.40;;
37151;SDS011;23046;50.112;8.952;2023-02-28T00:18:07;2.30;;;1.30;;
37151;SDS011;23046;50.112;8.952;2023-02-28T00:18:17;1.67;;;1.33;;
37151;SDS011;23046;50.112;8.952;2023-02-28T00:18:27;1.30;;;1.20;;
37151;SDS011;23046;50.112;8.952;2023-02-28T00:18:38;1.40;;;1.30;;
37151;SDS011;23046;50.112;8.952;2023-02-28T00:18:48;1.33;;;1.23;;
37151;SDS011;23046;50.112;8.952;2023-02-28T00:18:58;1.30;;;1.20;;
37151;SDS011;23046;50.112;8.952;2023-02-28T00:19:08;1.40;;;1.30;;
37151;SDS011;23046;50.112;8.952;2023-02-28T00:19:19;1.67;;;1.47;;
37151;SDS011;23046;50.112;8.952;2023-02-28T00:19:29;1.60;;;1.50;;
37151;SDS011;23046;50.112;8.952;2023-02-28T00:19:39;1.50;;;1.40;;
37151;SDS011;23046;50.112;8.952;2023-02-28T00:19:50;1.50;;;1.40;;
37151;SDS011;23046;50.112;8.952;2023-02-28T00:20:01;1.50;;;1.35;;
37151;SDS011;23046;50.112;8.952;2023-02-28T00:20:21;1.90;;;1.30;;
37151;SDS011;23046;50.112;8.952;2023-02-28T00:20:31;2.50;;;1.40;;
37151;SDS011;23046;50.112;8.952;2023-02-28T00:20:42;2.47;;;1.40;;
37151;SDS011;23046;50.112;8.952;2023-02-28T00:20:52;2.23;;;1.30;;
37151;SDS011;23046;50.112;8.952;2023-02-28T00:21:02;1.50;;;1.30;;
37151;SDS011;23046;50.112;8.952;2023-02-28T00:21:13;1.63;;;1.40;;
37151;SDS011;23046;50.112;8.952;2023-02-28T00:21:23;1.50;;;1.40;;
37151;SDS011;23046;50.112;8.952;2023-02-28T00:21:34;1.45;;;1.35;;
37151;SDS011;23046;50.112;8.952;2023-02-28T00:21:45;1.40;;;1.30;;
37151;SDS011;23046;50.112;8.952;2023-02-28T00:21:55;1.40;;;1.30;;
37151;SDS011;23046;50.112;8.952;2023-02-28T00:22:05;1.30;;;1.20;;
37151;SDS011;23046;50.112;8.952;2023-02-28T00:22:17;1.33;;;1.23;;
37151;SDS011;23046;50.112;8.952;2023-02-28T00:22:27;1.50;;;1.40;;
37151;SDS011;23046;50.112;8.952;2023-02-28T00:22:38;1.87;;;1.37;;
37151;SDS011;23046;50.112;8.952;2023-02-28T00:22:49;1.80;;;1.35;;
37151;SDS011;23046;50.112;8.952;2023-02-28T00:23:00;1.73;;;1.30;;
37151;SDS011;23046;50.112;8.952;2023-02-28T00:23:10;1.50;;;1.40;;
37151;SDS011;23046;50.112;8.952;2023-02-28T00:23:20;1.50;;;1.40;;
37151;SDS011;23046;50.112;8.952;2023-02-28T00:23:31;1.45;;;1.35;;
37151;SDS011;23046;50.112;8.952;2023-02-28T00:23:41;1.60;;;1.50;;
37151;SDS011;23046;50.112;8.952;2023-02-28T00:23:51;1.50;;;1.40;;
37151;SDS011;23046;50.112;8.952;2023-02-28T00:24:02;1.50;;;1.40;;
37151;SDS011;23046;50.112;8.952;2023-02-28T00:24:12;1.40;;;1.20;;
37151;SDS011;23046;50.112;8.952;2023-02-28T00:24:22;1.70;;;1.30;;
37151;SDS011;23046;50.112;8.952;2023-02-28T00:24:32;1.67;;;1.30;;
37151;SDS011;23046;50.112;8.952;2023-02-28T00:24:42;1.60;;;1.40;;
37151;SDS011;23046;50.112;8.952;2023-02-28T00:24:52;1.50;;;1.40;;
37151;SDS011;23046;50.112;8.952;2023-02-28T00:25:03;1.97;;;1.60;;
37151;SDS011;23046;50.112;8.952;2023-02-28T00:25:15;2.13;;;1.60;;
37151;SDS011;23046;50.112;8.952;2023-02-28T00:25:25;2.05;;;1.48;;
37151;SDS011;23046;50.112;8.952;2023-02-28T00:25:36;1.23;;;1.13;;
37151;SDS011;23046;50.112;8.952;2023-02-28T00:25:46;1.10;;;1.07;;
37151;SDS011;23046;50.112;8.952;2023-02-28T00:25:56;1.20;;;1.20;;
37151;SDS011;23046;50.112;8.952;2023-02-28T00:26:06;1.37;;;1.27;;
37151;SDS011;23046;50.112;8.952;2023-02-28T00:26:16;1.80;;;1.35;;
37151;SDS011;23046;50.112;8.952;2023-02-28T00:26:29;2.13;;;1.50;;
37151;SDS011;23046;50.112;8.952;2023-02-28T00:26:39;2.13;;;1.50;;
37151;SDS011;23046;50.112;8.952;2023-02-28T00:26:49;1.97;;;1.60;;
37151;SDS011;23046;50.112;8.952;2023-02-28T00:26:59;1.67;;;1.47;;
37151;SDS011;23046;50.112;8.952;2023-02-28T00:27:10;1.60;;;1.50;;
37151;SDS011;23046;50.112;8.952;2023-02-28T00:27:20;1.40;;;1.30;;
37151;SDS011;23046;50.112;8.952;2023-02-28T00:27:30;1.80;;;1.23;;
37151;SDS011;23046;50.112;8.952;2023-02-28T00:27:40;1.77;;;1.27;;
37151;SDS011;23046;50.112;8.952;2023-02-28T00:27:51;1.80;;;1.38;;
37151;SDS011;23046;50.112;8.952;2023-02-28T00:28:01;1.50;;;1.40;;
37151;SDS011;23046;50.112;8.952;2023-02-28T00:28:11;1.40;;;1.30;;
37151;SDS011;23046;50.112;8.952;2023-02-28T00:28:21;1.27;;;1.17;;
37151;SDS011;23046;50.112;8.952;2023-02-28T00:28:31;1.20;;;1.10;;
37151;SDS011;23046;50.112;8.952;2023-02-28T00:28:43;1.30;;;1.20;;
37151;SDS011;23046;50.112;8.952;2023-02-28T00:28:53;1.40;;;1.30;;
37151;SDS011;23046;50.112;8.952;2023-02-28T00:29:03;1.50;;;1.40;;
37151;SDS011;23046;50.112;8.952;2023-02-28T00:29:13;1.40;;;1.30;;
37151;SDS011;23046;50.112;8.952;2023-02-28T00:29:24;1.40;;;1.30;;
37151;SDS011;23046;50.112;8.952;2023-02-28T00:29:34;1.42;;;1.30;;
37151;SDS011;23046;50.112;8.952;2023-02-28T00:29:46;1.60;;;1.30;;
37151;SDS011;23046;50.112;8.952;2023-02-28T00:29:56;1.60;;;1.25;;
37151;SDS011;23046;50.112;8.952;2023-02-28T00:30:09;1.60;;;1.30;;
37151;SDS011;23046;50.112;8.952;2023-02-28T00:30:22;1.40;;;1.30;;
37151;SDS011;23046;50.112;8.952;2023-02-28T00:30:32;1.88;;;1.42;;
37151;SDS011;23046;50.112;8.952;2023-02-28T00:30:42;2.20;;;1.47;;
37151;SDS011;23046;50.112;8.952;2023-02-28T00:30:52;2.60;;;1.60;;
37151;SDS011;23046;50.112;8.952;2023-02-28T00:31:03;1.70;;;1.40;;
37151;SDS011;23046;50.112;8.952;2023-02-28T00:31:13;1.47;;;1.37;;
37151;SDS011;23046;50.112;8.952;2023-02-28T00:31:23;1.10;;;1.10;;
37151;SDS011;23046;50.112;8.952;2023-02-28T00:31:33;1.17;;;1.17;;
37151;SDS011;23046;50.112;8.952;2023-02-28T00:31:44;1.27;;;1.20;;
37151;SDS011;23046;50.112;8.952;2023-02-28T00:31:55;1.50;;;1.40;;
37151;SDS011;23046;50.112;8.952;2023-02-28T00:32:05;1.57;;;1.33;;
37151;SDS011;23046;50.112;8.952;2023-02-28T00:32:15;1.57;;;1.40;;
37151;SDS011;23046;50.112;8.952;2023-02-28T00:32:26;1.70;;;1.38;;
37151;SDS011;23046;50.112;8.952;2023-02-28T00:32:36;1.83;;;1.40;;
37151;SDS011;23046;50.112;8.952;2023-02-28T00:32:46;1.87;;;1.40;;
37151;SDS011;23046;50.112;8.952;2023-02-28T00:32:56;1.60;;;1.30;;
37151;SDS011;23046;50.112;8.952;2023-02-28T00:33:07;1.30;;;1.20;;
37151;SDS011;23046;50.112;8.952;2023-02-28T00:33:17;1.53;;;1.30;;
37151;SDS011;23046;50.112;8.952;2023-02-28T00:33:27;2.20;;;1.40;;
37151;SDS011;23046;50.112;8.952;2023-02-28T00:33:38;2.08;;;1.42;;
37151;SDS011;23046;50.112;8.952;2023-02-28T00:33:48;1.53;;;1.37;;
37151;SDS011;23046;50.112;8.952;2023-02-28T00:33:58;1.47;;;1.37;;
37151;SDS011;23046;50.112;8.952;2023-02-28T00:34:09;1.40;;;1.30;;
37151;SDS011;23046;50.112;8.952;2023-02-28T00:34:19;1.40;;;1.30;;
37151;SDS011;23046;50.112;8.952;2023-02-28T00:34:30;1.30;;;1.20;;
37151;SDS011;23046;50.112;8.952;2023-02-28T00:34:40;1.30;;;1.20;;
37151;SDS011;23046;50.112;8.952;2023-02-28T00:34:52;1.60;;;1.30;;
37151;SDS011;23046;50.112;8.952;2023-02-28T00:35:02;1.70;;;1.40;;
37151;SDS011;23046;50.112;8.952;2023-02-28T00:35:12;1.73;;;1.40;;
37151;SDS011;23046;50.112;8.952;2023-02-28T00:35:25;1.48;;;1.38;;
37151;SDS011;23046;50.112;8.952;2023-02-28T00:35:35;1.50;;;1.40;;
37151;SDS011;23046;50.112;8.952;2023-02-28T00:35:45;1.50;;;1.40;;
37151;SDS011;23046;50.112;8.952;2023-02-28T00:36:02;1.48;;;1.38;;
37151;SDS011;23046;50.112;8.952;2023-02-28T00:36:13;1.60;;;1.30;;
37151;SDS011;23046;50.112;8.952;2023-02-28T00:36:24;1.77;;;1.30;;
37151;SDS011;23046;50.112;8.952;2023-02-28T00:36:34;1.83;;;1.40;;
37151;SDS011;23046;50.112;8.952;2023-02-28T00:36:48;2.20;;;1.33;;
37151;SDS011;23046;50.112;8.952;2023-02-28T00:37:01;2.22;;;1.40;;
37151;SDS011;23046;50.112;8.952;2023-02-28T00:37:11;2.10;;;1.30;;
37151;SDS011;23046;50.112;8.952;2023-02-28T00:37:24;1.80;;;1.42;;
37151;SDS011;23046;50.112;8.952;2023-02-28T00:37:34;2.33;;;1.43;;
37151;SDS011;23046;50.112;8.952;2023-02-28T00:37:44;2.90;;;1.50;;
37151;SDS011;23046;50.112;8.952;2023-02-28T00:37:55;2.47;;;1.30;;
37151;SDS011;23046;50.112;8.952;2023-02-28T00:38:05;2.15;;;1.38;;
37151;SDS011;23046;50.112;8.952;2023-02-28T00:38:15;1.53;;;1.20;;
37151;SDS011;23046;50.112;8.952;2023-02-28T00:38:26;1.60;;;1.30;;
37151;SDS011;23046;50.112;8.952;2023-02-28T00:38:38;1.85;;;1.38;;
37151;SDS011;23046;50.112;8.952;2023-02-28T00:38:48;1.63;;;1.40;;
37151;SDS011;23046;50.112;8.952;2023-02-28T00:38:58;1.50;;;1.30;;
37151;SDS011;23046;50.112;8.952;2023-02-28T00:39:11;1.90;;;1.23;;
37151;SDS011;23046;50.112;8.952;2023-02-28T00:39:21;1.67;;;1.20;;
37151;SDS011;23046;50.112;8.952;2023-02-28T00:39:35;1.77;;;1.30;;
37151;SDS011;23046;50.112;8.952;2023-02-28T00:39:46;1.65;;;1.40;;
37151;SDS011;23046;50.112;8.952;2023-02-28T00:39:56;2.03;;;1.60;;
37151;SDS011;23046;50.112;8.952;2023-02-28T00:40:06;1.85;;;1.60;;
37151;SDS011;23046;50.112;8.952;2023-02-28T00:40:17;1.60;;;1.50;;
37151;SDS011;23046;50.112;8.952;2023-02-28T00:40:27;1.45;;;1.35;;
37151;SDS011;23046;50.112;8.952;2023-02-28T00:40:38;1.50;;;1.40;;
37151;SDS011;23046;50.112;8.952;2023-02-28T00:40:48;1.50;;;1.40;;
37151;SDS011;23046;50.112;8.952;2023-02-28T00:40:58;1.70;;;1.50;;
37151;SDS011;23046;50.112;8.952;2023-02-28T00:41:14;2.30;;;1.58;;
37151;SDS011;23046;50.112;8.952;2023-02-28T00:41:24;1.83;;;1.42;;
37151;SDS011;23046;50.112;8.952;2023-02-28T00:41:34;1.40;;;1.23;;
37151;SDS011;23046;50.112;8.952;2023-02-28T00:41:44;1.30;;;1.20;;
37151;SDS011;23046;50.112;8.952;2023-02-28T00:41:55;1.30;;;1.20;;
37151;SDS011;23046;50.112;8.952;2023-02-28T00:42:05;1.43;;;1.20;;
37151;SDS011;23046;50.112;8.952;2023-02-28T00:42:15;1.35;;;1.25;;
37151;SDS011;23046;50.112;8.952;2023-02-28T00:42:26;1.40;;;1.30;;
37151;SDS011;23046;50.112;8.952;2023-02-28T00:42:37;1.40;;;1.30;;
37151;SDS011;23046;50.112;8.952;2023-02-28T00:42:47;1.47;;;1.37;;
37151;SDS011;23046;50.112;8.952;2023-02-28T00:42:57;1.50;;;1.40;;
37151;SDS011;23046;50.112;8.952;2023-02-28T00:43:07;1.50;;;1.40;;
37151;SDS011;23046;50.112;8.952;2023-02-28T00:43:17;1.43;;;1.33;;
37151;SDS011;23046;50.112;8.952;2023-02-28T00:43:28;1.23;;;1.13;;
37151;SDS011;23046;50.112;8.952;2023-02-28T00:43:38;1.20;;;1.10;;
37151;SDS011;23046;50.112;8.952;2023-02-28T00:43:49;1.37;;;1.20;;
37151;SDS011;23046;50.112;8.952;2023-02-28T00:43:59;1.40;;;1.30;;
37151;SDS011;23046;50.112;8.952;2023-02-28T00:44:09;1.55;;;1.40;;
37151;SDS011;23046;50.112;8.952;2023-02-28T00:44:20;1.70;;;1.50;;
37151;SDS011;23046;50.112;8.952;2023-02-28T00:44:31;1.60;;;1.40;;
37151;SDS011;23046;50.112;8.952;2023-02-28T00:44:42;1.40;;;1.30;;
37151;SDS011;23046;50.112;8.952;2023-02-28T00:44:52;1.40;;;1.30;;
37151;SDS011;23046;50.112;8.952;2023-02-28T00:45:02;1.47;;;1.37;;
37151;SDS011;23046;50.112;8.952;2023-02-28T00:45:14;1.50;;;1.40;;
37151;SDS011;23046;50.112;8.952;2023-02-28T00:45:24;1.40;;;1.30;;
37151;SDS011;23046;50.112;8.952;2023-02-28T00:45:34;1.40;;;1.30;;
37151;SDS011;23046;50.112;8.952;2023-02-28T00:45:45;1.40;;;1.30;;
37151;SDS011;23046;50.112;8.952;2023-02-28T00:45:55;1.40;;;1.30;;
37151;SDS011;23046;50.112;8.952;2023-02-28T00:46:05;1.40;;;1.30;;
37151;SDS011;23046;50.112;8.952;2023-02-28T00:46:16;1.40;;;1.25;;
37151;SDS011;23046;50.112;8.952;2023-02-28T00:46:26;1.40;;;1.30;;
37151;SDS011;23046;50.112;8.952;2023-02-28T00:46:36;1.53;;;1.43;;
37151;SDS011;23046;50.112;8.952;2023-02-28T00:46:46;1.52;;;1.42;;
37151;SDS011;23046;50.112;8.952;2023-02-28T00:46:57;1.83;;;1.50;;
37151;SDS011;23046;50.112;8.952;2023-02-28T00:47:08;1.83;;;1.42;;
37151;SDS011;23046;50.112;8.952;2023-02-28T00:47:18;1.77;;;1.50;;
37151;SDS011;23046;50.112;8.952;2023-02-28T00:47:28;1.83;;;1.60;;
37151;SDS011;23046;50.112;8.952;2023-02-28T00:47:39;1.90;;;1.70;;
37151;SDS011;23046;50.112;8.952;2023-02-28T00:47:49;1.90;;;1.70;;
37151;SDS011;23046;50.112;8.952;2023-02-28T00:47:59;1.73;;;1.63;;
37151;SDS011;23046;50.112;8.952;2023-02-28T00:48:10;1.60;;;1.50;;
37151;SDS011;23046;50.112;8.952;2023-02-28T00:48:22;2.28;;;1.40;;
37151;SDS011;23046;50.112;8.952;2023-02-28T00:48:32;2.17;;;1.40;;
37151;SDS011;23046;50.112;8.952;2023-02-28T00:48:42;1.93;;;1.40;;
37151;SDS011;23046;50.112;8.952;2023-02-28T00:48:53;2.00;;;1.50;;
37151;SDS011;23046;50.112;8.952;2023-02-28T00:49:03;1.90;;;1.47;;
37151;SDS011;23046;50.112;8.952;2023-02-28T00:49:13;2.17;;;1.50;;
37151;SDS011;23046;50.112;8.952;2023-02-28T00:49:24;1.53;;;1.43;;
37151;SDS011;23046;50.112;8.952;2023-02-28T00:49:34;1.55;;;1.40;;
37151;SDS011;23046;50.112;8.952;2023-02-28T00:49:46;1.58;;;1.30;;
37151;SDS011;23046;50.112;8.952;2023-02-28T00:49:56;2.00;;;1.40;;
37151;SDS011;23046;50.112;8.952;2023-02-28T00:50:06;2.10;;;1.40;;
37151;SDS011;23046;50.112;8.952;2023-02-28T00:50:17;2.90;;;1.50;;
37151;SDS011;23046;50.112;8.952;2023-02-28T00:50:27;2.38;;;1.45;;
37151;SDS011;23046;50.112;8.952;2023-02-28T00:50:38;2.20;;;1.40;;
37151;SDS011;23046;50.112;8.952;2023-02-28T00:50:48;1.70;;;1.50;;
37151;SDS011;23046;50.112;8.952;2023-02-28T00:50:59;2.15;;;1.67;;
37151;SDS011;23046;50.112;8.952;2023-02-28T00:51:09;2.15;;;1.70;;
37151;SDS011;23046;50.112;8.952;2023-02-28T00:51:19;1.93;;;1.60;;
37151;SDS011;23046;50.112;8.952;2023-02-28T00:51:30;2.00;;;1.50;;
37151;SDS011;23046;50.112;8.952;2023-02-28T00:51:41;1.73;;;1.50;;
37151;SDS011;23046;50.112;8.952;2023-02-28T00:51:51;1.50;;;1.40;;
37151;SDS011;23046;50.112;8.952;2023-02-28T00:52:03;1.50;;;1.40;;
37151;SDS011;23046;50.112;8.952;2023-02-28T00:52:13;1.67;;;1.40;;
37151;SDS011;23046;50.112;8.952;2023-02-28T00:52:23;1.90;;;1.37;;
37151;SDS011;23046;50.112;8.952;2023-02-28T00:52:33;2.20;;;1.45;;
37151;SDS011;23046;50.112;8.952;2023-02-28T00:52:44;2.03;;;1.60;;
37151;SDS011;23046;50.112;8.952;2023-02-28T00:52:54;2.10;;;1.60;;
37151;SDS011;23046;50.112;8.952;2023-02-28T00:53:04;1.60;;;1.47;;
37151;SDS011;23046;50.112;8.952;2023-02-28T00:53:14;2.03;;;1.40;;
37151;SDS011;23046;50.112;8.952;2023-02-28T00:53:24;1.80;;;1.40;;
37151;SDS011;23046;50.112;8.952;2023-02-28T00:53:34;1.80;;;1.50;;
37151;SDS011;23046;50.112;8.952;2023-02-28T00:53:45;1.57;;;1.43;;
37151;SDS011;23046;50.112;8.952;2023-02-28T00:53:55;2.10;;;1.50;;
37151;SDS011;23046;50.112;8.952;2023-02-28T00:54:07;1.90;;;1.40;;
37151;SDS011;23046;50.112;8.952;2023-02-28T00:54:18;1.63;;;1.40;;
37151;SDS011;23046;50.112;8.952;2023-02-28T00:54:31;1.45;;;1.35;;
37151;SDS011;23046;50.112;8.952;2023-02-28T00:54:41;1.50;;;1.40;;
37151;SDS011;23046;50.112;8.952;2023-02-28T00:54:51;1.67;;;1.37;;
37151;SDS011;23046;50.112;8.952;2023-02-28T00:55:01;1.80;;;1.40;;
37151;SDS011;23046;50.112;8.952;2023-02-28T00:55:12;1.52;;;1.40;;
37151;SDS011;23046;50.112;8.952;2023-02-28T00:55:22;1.57;;;1.30;;
37151;SDS011;23046;50.112;8.952;2023-02-28T00:55:32;1.70;;;1.27;;
37151;SDS011;23046;50.112;8.952;2023-02-28T00:55:42;1.73;;;1.23;;
37151;SDS011;23046;50.112;8.952;2023-02-28T00:55:54;1.50;;;1.40;;
37151;SDS011;23046;50.112;8.952;2023-02-28T00:56:04;1.60;;;1.50;;
37151;SDS011;23046;50.112;8.952;2023-02-28T00:56:15;1.70;;;1.50;;
37151;SDS011;23046;50.112;8.952;2023-02-28T00:56:25;1.60;;;1.40;;
37151;SDS011;23046;50.112;8.952;2023-02-28T00:56:35;1.50;;;1.40;;
37151;SDS011;23046;50.112;8.952;2023-02-28T00:56:46;1.45;;;1.35;;
37151;SDS011;23046;50.112;8.952;2023-02-28T00:56:56;2.07;;;1.40;;
37151;SDS011;23046;50.112;8.952;2023-02-28T00:57:06;2.30;;;1.30;;
37151;SDS011;23046;50.112;8.952;2023-02-28T00:57:16;2.20;;;1.40;;
37151;SDS011;23046;50.112;8.952;2023-02-28T00:57:26;1.58;;;1.35;;
37151;SDS011;23046;50.112;8.952;2023-02-28T00:57:37;1.50;;;1.40;;
37151;SDS011;23046;50.112;8.952;2023-02-28T00:57:47;1.50;;;1.40;;
37151;SDS011;23046;50.112;8.952;2023-02-28T00:57:57;1.90;;;1.37;;
37151;SDS011;23046;50.112;8.952;2023-02-28T00:58:09;1.75;;;1.30;;
37151;SDS011;23046;50.112;8.952;2023-02-28T00:58:19;1.80;;;1.30;;
37151;SDS011;23046;50.112;8.952;2023-02-28T00:58:29;1.50;;;1.40;;
37151;SDS011;23046;50.112;8.952;2023-02-28T00:58:40;1.70;;;1.50;;
37151;SDS011;23046;50.112;8.952;2023-02-28T00:58:51;1.50;;;1.40;;
37151;SDS011;23046;50.112;8.952;2023-02-28T00:59:03;1.50;;;1.40;;
37151;SDS011;23046;50.112;8.952;2023-02-28T00:59:14;1.43;;;1.33;;
37151;SDS011;23046;50.112;8.952;2023-02-28T00:59:24;1.52;;;1.42;;
37151;SDS011;23046;50.112;8.952;2023-02-28T00:59:34;1.60;;;1.50;;
37151;SDS011;23046;50.112;8.952;2023-02-28T00:59:44;2.00;;;1.60;;
37151;SDS011;23046;50.112;8.952;2023-02-28T00:59:55;1.83;;;1.55;;
37151;SDS011;23046;50.112;8.952;2023-02-28T01:00:05;1.57;;;1.43;;
37151;SDS011;23046;50.112;8.952;2023-02-28T01:00:16;1.85;;;1.48;;
37151;SDS011;23046;50.112;8.952;2023-02-28T01:00:26;1.77;;;1.47;;
37151;SDS011;23046;50.112;8.952;2023-02-28T01:00:36;1.80;;;1.50;;
37151;SDS011;23046;50.112;8.952;2023-02-28T01:00:47;1.50;;;1.40;;
37151;SDS011;23046;50.112;8.952;2023-02-28T01:01:00;1.45;;;1.35;;
37151;SDS011;23046;50.112;8.952;2023-02-28T01:01:10;1.53;;;1.43;;
37151;SDS011;23046;50.112;8.952;2023-02-28T01:01:21;1.48;;;1.38;;
37151;SDS011;23046;50.112;8.952;2023-02-28T01:01:32;1.40;;;1.30;;
37151;SDS011;23046;50.112;8.952;2023-02-28T01:01:43;1.50;;;1.40;;
37151;SDS011;23046;50.112;8.952;2023-02-28T01:01:53;1.70;;;1.60;;
37151;SDS011;23046;50.112;8.952;2023-02-28T01:02:05;1.52;;;1.42;;
37151;SDS011;23046;50.112;8.952;2023-02-28T01:02:15;1.40;;;1.30;;
37151;SDS011;23046;50.112;8.952;2023-02-28T01:02:26;1.55;;;1.35;;
37151;SDS011;23046;50.112;8.952;2023-02-28T01:02:36;1.70;;;1.40;;
37151;SDS011;23046;50.112;8.952;2023-02-28T01:02:46;1.90;;;1.50;;
37151;SDS011;23046;50.112;8.952;2023-02-28T01:02:58;1.70;;;1.60;;
37151;SDS011;23046;50.112;8.952;2023-02-28T01:03:08;1.80;;;1.70;;
37151;SDS011;23046;50.112;8.952;2023-02-28T01:03:19;1.60;;;1.50;;
37151;SDS011;23046;50.112;8.952;2023-02-28T01:03:29;1.52;;;1.42;;
37151;SDS011;23046;50.112;8.952;2023-02-28T01:03:39;1.50;;;1.40;;
37151;SDS011;23046;50.112;8.952;2023-02-28T01:03:50;1.70;;;1.40;;
37151;SDS011;23046;50.112;8.952;2023-02-28T01:04:00;1.87;;;1.40;;
37151;SDS011;23046;50.112;8.952;2023-02-28T01:04:10;1.70;;;1.33;;
37151;SDS011;23046;50.112;8.952;2023-02-28T01:04:21;2.30;;;1.63;;